Detalii statie FERMA VISANI-IMB [000011A7]

Toti senzorii

Date Temperatura solului [C]Precipitatii [mm]Voltaj baterie [mV]Leaf Wetness [Min]HC Air temperature [C]HC Relative humidity [%]Punctul de roua [C]
medieminmaxsumaultimatimpmedieminmaxmediemediemin
2018-06-20 10:00:00 31.4 29.5 33.4 0 6738 0 29.53 27.8 30.52 0 0 0
2018-06-20 11:00:00 35.3 33.7 36.9 0 6796 0 31.56 30.33 32.38 0 0 0
2018-06-20 12:00:00 38.8 37.3 40.2 0 6816 0 33.33 32.05 34.06 0 0 0
2018-06-20 13:00:00 41.8 40.5 43 0 6904 0 34.48 33.64 35.67 0 0 0
2018-06-20 14:00:00 44.2 43.2 45.2 0 6914 0 35.44 34.95 36.09 0 0 0
2018-06-20 15:00:00 45.8 45.2 46.3 0 6914 0 36.1 35.65 36.36 0 0 0
2018-06-20 16:00:00 46.4 46.4 46.6 0 6904 0 35.86 35.18 36.7 0 0 0
2018-06-20 17:00:00 45.9 45.4 46.4 0 6894 0 35.76 35.07 36.11 5.62 2.8 0
2018-06-20 18:00:00 44.4 43.4 45.3 0 6806 0 35.12 34.69 35.77 0 0 0
2018-06-20 19:00:00 42 40.8 43.3 0 6620 0 34.23 32.83 35.11 0 0 0
2018-06-20 20:00:00 39.2 37.9 40.7 0 6600 0 32.01 30 33.4 4.59 0
2018-06-20 21:00:00 36.2 34.9 37.5 0 6590 0 27.54 26.25 29.33 18.55 6.2 0
2018-06-20 22:00:00 33.8 33.1 34.8 0 6582 0 26.05 24.86 26.81 0 0 0
2018-06-20 23:00:00 32.1 31.5 32.7 0 6582 0 23.93 23.49 24.49 0 0 0
2018-06-21 00:00:00 30.8 30.3 31.5 0 6562 0 23.16 22.45 24.12 0 0 0
2018-06-21 01:00:00 29.8 29.5 30.3 0 6562 0 22.14 21.69 22.46 0 0 0
2018-06-21 02:00:00 29.1 28.9 29.4 0 6552 0 21.75 21.54 21.99 0 0 0
2018-06-21 03:00:00 28.6 28.3 28.8 0 6552 0 21.58 21.31 21.99 0 0 0
2018-06-21 04:00:00 28.1 27.9 28.5 0 6552 0 21.19 20.85 21.56 0 0 0
2018-06-21 05:00:00 27.4 27.1 27.9 0 6532 0 20.4 19.77 21.23 0 0 0
2018-06-21 06:00:00 26.8 26.6 27.1 0 6542 0 19.71 19.57 19.86 0 0 0
2018-06-21 07:00:00 26.6 26.5 26.8 0 6562 0 20.79 19.83 21.78 0 0 0
2018-06-21 08:00:00 27.4 26.9 28.3 0 6600 0 23.39 21.98 25.21 0 0 0
2018-06-21 09:00:00 29.8 28.5 31.2 0 6660 0 26.84 25.42 29.1 0 0 0
2018-06-21 10:00:00 33.2 31.5 35.1 0 6776 0 30.78 29.16 31.95 0 0 0
2018-06-21 11:00:00 36.4 35.4 37.7 0 6796 0 31.88 30.73 33.19 0 0 0
2018-06-21 12:00:00 39.8 38.2 41.3 0 6826 0 33.88 33.34 34.62 0 0 0
2018-06-21 13:00:00 43 41.6 43.8 0 6914 0 34.66 33.34 35.64 11.77 4.5 0
2018-06-21 14:00:00 44.5 44 45.3 0 6914 0 35.09 33.74 36.44 37.96 18.3 16.7
2018-06-21 15:00:00 46.6 45.5 47.4 0 6904 0 35.76 33.99 36.64 34.72 17.4 16.1
2018-06-21 16:00:00 47.5 46.7 48 0 6904 0 35.56 33.34 37.34 35.53 17.7 16.5
2018-06-21 17:00:00 45.7 44.5 46.6 0 6640 0 34.22 32.27 35.68 36.95 17.1 16.4
2018-06-21 18:00:00 41.3 38.9 44 0 6590 25 27.46 24.75 31.2 49.26 15.7 0
2018-06-21 19:00:00 36.4 34.6 38.5 0.6 6582 40 23.85 22.27 24.82 22.95 0
2018-06-21 20:00:00 32.7 31.7 34.4 0.2 6582 60 21.48 21.17 21.66 6.3 0
2018-06-21 21:00:00 30.7 30.1 31.4 0 6572 60 20.92 20.52 21.2 0 0 0
2018-06-21 22:00:00 29.3 28.9 29.9 0 6572 60 20.21 20.11 20.44 0 0 0
2018-06-21 23:00:00 28.3 27.9 28.8 0 6562 60 20.32 20.13 20.41 0 0 0
2018-06-22 00:00:00 27.4 27 28 0 6562 60 19.84 19.6 20.07 0 0 0
2018-06-22 01:00:00 26.5 26.3 26.9 0 6552 60 19.95 19.56 20.15 0 0 0
2018-06-22 02:00:00 25.9 25.7 26.2 0 6542 60 19.13 18.53 19.53 0 0 0
2018-06-22 03:00:00 25.3 25.1 25.6 0 6532 60 18.43 18.26 18.52 0 0 0
2018-06-22 04:00:00 24.8 24.6 25.1 0 6532 60 18.1 17.95 18.44 0 0 0
2018-06-22 05:00:00 24.4 24.2 24.6 0 6522 60 18.03 17.66 18.34 0 0 0
2018-06-22 06:00:00 24 23.8 24.3 0 6522 60 17.61 17.38 17.88 0 0 0
2018-06-22 07:00:00 24 23.8 24.4 0 6562 60 18.67 17.91 19.7 0 0 0
2018-06-22 08:00:00 24.8 24.4 25.4 0 6582 5 21.16 19.99 21.6 0 0 0
2018-06-22 09:00:00 26.3 25.5 28 0 6748 0 22.96 21.57 24.62 0 0 0